sensor_id;sensor_type;location;lat;lon;timestamp;P1;durP1;ratioP1;P2;durP2;ratioP2
13849;SDS011;6995;52.618;13.488;2023-05-01T00:00:46;28.60;;;26.47;;
13849;SDS011;6995;52.618;13.488;2023-05-01T00:03:12;31.67;;;29.70;;
13849;SDS011;6995;52.618;13.488;2023-05-01T00:05:38;28.37;;;26.47;;
13849;SDS011;6995;52.618;13.488;2023-05-01T00:08:04;28.00;;;26.10;;
13849;SDS011;6995;52.618;13.488;2023-05-01T00:10:29;27.77;;;26.07;;
13849;SDS011;6995;52.618;13.488;2023-05-01T00:12:55;27.17;;;25.00;;
13849;SDS011;6995;52.618;13.488;2023-05-01T00:15:21;30.40;;;28.47;;
13849;SDS011;6995;52.618;13.488;2023-05-01T00:17:46;25.33;;;23.63;;
13849;SDS011;6995;52.618;13.488;2023-05-01T00:20:12;26.23;;;24.53;;
13849;SDS011;6995;52.618;13.488;2023-05-01T00:22:38;23.57;;;22.07;;
13849;SDS011;6995;52.618;13.488;2023-05-01T00:25:11;23.63;;;22.13;;
13849;SDS011;6995;52.618;13.488;2023-05-01T00:27:37;27.40;;;25.83;;
13849;SDS011;6995;52.618;13.488;2023-05-01T00:30:03;24.03;;;22.40;;
13849;SDS011;6995;52.618;13.488;2023-05-01T00:32:29;27.17;;;25.30;;
13849;SDS011;6995;52.618;13.488;2023-05-01T00:34:54;24.77;;;23.33;;
13849;SDS011;6995;52.618;13.488;2023-05-01T00:37:21;26.40;;;24.50;;
13849;SDS011;6995;52.618;13.488;2023-05-01T00:39:48;26.73;;;24.93;;
13849;SDS011;6995;52.618;13.488;2023-05-01T00:42:13;27.10;;;25.33;;
13849;SDS011;6995;52.618;13.488;2023-05-01T00:44:39;26.47;;;24.57;;
13849;SDS011;6995;52.618;13.488;2023-05-01T00:47:05;24.17;;;22.57;;
13849;SDS011;6995;52.618;13.488;2023-05-01T00:49:30;25.73;;;24.13;;
13849;SDS011;6995;52.618;13.488;2023-05-01T00:51:56;26.67;;;24.93;;
13849;SDS011;6995;52.618;13.488;2023-05-01T00:54:23;26.50;;;24.03;;
13849;SDS011;6995;52.618;13.488;2023-05-01T00:56:50;24.47;;;22.83;;
13849;SDS011;6995;52.618;13.488;2023-05-01T00:59:16;24.60;;;23.03;;
13849;SDS011;6995;52.618;13.488;2023-05-01T01:01:42;25.97;;;24.40;;
13849;SDS011;6995;52.618;13.488;2023-05-01T01:04:07;26.27;;;24.57;;
13849;SDS011;6995;52.618;13.488;2023-05-01T01:12:49;24.80;;;23.20;;
13849;SDS011;6995;52.618;13.488;2023-05-01T01:15:39;24.00;;;22.20;;
13849;SDS011;6995;52.618;13.488;2023-05-01T01:18:18;23.67;;;22.30;;
13849;SDS011;6995;52.618;13.488;2023-05-01T01:21:11;25.70;;;24.20;;
13849;SDS011;6995;52.618;13.488;2023-05-01T01:34:33;26.83;;;24.87;;
13849;SDS011;6995;52.618;13.488;2023-05-01T01:37:19;25.83;;;24.17;;
13849;SDS011;6995;52.618;13.488;2023-05-01T01:39:52;25.90;;;23.80;;
13849;SDS011;6995;52.618;13.488;2023-05-01T01:42:25;25.70;;;23.93;;
13849;SDS011;6995;52.618;13.488;2023-05-01T01:44:56;26.67;;;24.77;;
13849;SDS011;6995;52.618;13.488;2023-05-01T01:47:28;25.50;;;23.70;;
13849;SDS011;6995;52.618;13.488;2023-05-01T01:49:57;26.03;;;24.43;;
13849;SDS011;6995;52.618;13.488;2023-05-01T01:52:25;27.70;;;25.80;;
13849;SDS011;6995;52.618;13.488;2023-05-01T01:54:53;29.17;;;27.17;;
13849;SDS011;6995;52.618;13.488;2023-05-01T01:57:23;25.97;;;24.47;;
13849;SDS011;6995;52.618;13.488;2023-05-01T01:59:50;23.80;;;22.40;;
13849;SDS011;6995;52.618;13.488;2023-05-01T02:02:18;25.27;;;23.67;;
13849;SDS011;6995;52.618;13.488;2023-05-01T02:04:45;26.17;;;24.40;;
13849;SDS011;6995;52.618;13.488;2023-05-01T02:07:13;25.40;;;23.67;;
13849;SDS011;6995;52.618;13.488;2023-05-01T02:09:40;25.80;;;23.97;;
13849;SDS011;6995;52.618;13.488;2023-05-01T02:12:08;28.00;;;26.30;;
13849;SDS011;6995;52.618;13.488;2023-05-01T02:14:35;26.53;;;24.77;;
13849;SDS011;6995;52.618;13.488;2023-05-01T02:17:01;25.57;;;23.73;;
13849;SDS011;6995;52.618;13.488;2023-05-01T02:19:28;26.70;;;24.90;;
13849;SDS011;6995;52.618;13.488;2023-05-01T02:21:57;25.77;;;24.07;;
13849;SDS011;6995;52.618;13.488;2023-05-01T02:24:25;27.93;;;26.03;;
13849;SDS011;6995;52.618;13.488;2023-05-01T02:26:59;26.30;;;24.37;;
13849;SDS011;6995;52.618;13.488;2023-05-01T02:29:39;30.50;;;27.77;;
13849;SDS011;6995;52.618;13.488;2023-05-01T02:32:04;25.47;;;23.67;;
13849;SDS011;6995;52.618;13.488;2023-05-01T02:34:32;27.97;;;26.03;;
13849;SDS011;6995;52.618;13.488;2023-05-01T02:36:59;27.50;;;25.53;;
13849;SDS011;6995;52.618;13.488;2023-05-01T02:39:25;28.73;;;26.63;;
13849;SDS011;6995;52.618;13.488;2023-05-01T02:41:51;30.13;;;28.00;;
13849;SDS011;6995;52.618;13.488;2023-05-01T02:44:22;28.50;;;26.40;;
13849;SDS011;6995;52.618;13.488;2023-05-01T02:46:50;28.33;;;26.40;;
13849;SDS011;6995;52.618;13.488;2023-05-01T02:49:17;26.63;;;24.93;;
13849;SDS011;6995;52.618;13.488;2023-05-01T02:51:44;27.63;;;25.53;;
13849;SDS011;6995;52.618;13.488;2023-05-01T02:54:11;30.90;;;28.67;;
13849;SDS011;6995;52.618;13.488;2023-05-01T02:56:37;29.83;;;27.57;;
13849;SDS011;6995;52.618;13.488;2023-05-01T02:59:03;32.17;;;30.17;;
13849;SDS011;6995;52.618;13.488;2023-05-01T03:01:29;28.33;;;26.47;;
13849;SDS011;6995;52.618;13.488;2023-05-01T03:03:54;31.30;;;29.20;;
13849;SDS011;6995;52.618;13.488;2023-05-01T03:06:20;31.27;;;29.30;;
13849;SDS011;6995;52.618;13.488;2023-05-01T03:08:46;28.97;;;26.93;;
13849;SDS011;6995;52.618;13.488;2023-05-01T03:11:12;31.90;;;29.33;;
13849;SDS011;6995;52.618;13.488;2023-05-01T03:13:38;29.23;;;27.23;;
13849;SDS011;6995;52.618;13.488;2023-05-01T03:16:04;29.47;;;27.50;;
13849;SDS011;6995;52.618;13.488;2023-05-01T03:18:30;31.00;;;28.77;;
13849;SDS011;6995;52.618;13.488;2023-05-01T03:20:55;28.87;;;26.87;;
13849;SDS011;6995;52.618;13.488;2023-05-01T03:23:21;29.33;;;27.30;;
13849;SDS011;6995;52.618;13.488;2023-05-01T03:25:48;28.73;;;26.77;;
13849;SDS011;6995;52.618;13.488;2023-05-01T03:28:13;27.60;;;25.70;;
13849;SDS011;6995;52.618;13.488;2023-05-01T03:30:40;31.27;;;28.97;;
13849;SDS011;6995;52.618;13.488;2023-05-01T03:33:06;28.07;;;26.13;;
13849;SDS011;6995;52.618;13.488;2023-05-01T03:35:31;30.90;;;28.80;;
13849;SDS011;6995;52.618;13.488;2023-05-01T03:37:57;32.07;;;29.57;;
13849;SDS011;6995;52.618;13.488;2023-05-01T03:40:23;31.27;;;28.83;;
13849;SDS011;6995;52.618;13.488;2023-05-01T03:42:48;30.37;;;28.07;;
13849;SDS011;6995;52.618;13.488;2023-05-01T03:45:14;29.03;;;26.90;;
13849;SDS011;6995;52.618;13.488;2023-05-01T03:47:39;28.83;;;26.63;;
13849;SDS011;6995;52.618;13.488;2023-05-01T03:50:05;31.70;;;29.20;;
13849;SDS011;6995;52.618;13.488;2023-05-01T03:52:32;30.33;;;28.43;;
13849;SDS011;6995;52.618;13.488;2023-05-01T03:54:58;30.87;;;28.23;;
13849;SDS011;6995;52.618;13.488;2023-05-01T03:57:23;30.10;;;27.70;;
13849;SDS011;6995;52.618;13.488;2023-05-01T03:59:52;26.90;;;24.90;;
13849;SDS011;6995;52.618;13.488;2023-05-01T04:02:18;30.73;;;28.53;;
13849;SDS011;6995;52.618;13.488;2023-05-01T04:04:44;30.43;;;28.23;;
13849;SDS011;6995;52.618;13.488;2023-05-01T04:07:09;30.37;;;27.93;;
13849;SDS011;6995;52.618;13.488;2023-05-01T04:09:35;29.50;;;27.53;;
13849;SDS011;6995;52.618;13.488;2023-05-01T04:12:01;26.83;;;24.87;;
13849;SDS011;6995;52.618;13.488;2023-05-01T04:14:27;25.90;;;24.10;;
13849;SDS011;6995;52.618;13.488;2023-05-01T04:16:53;28.87;;;26.83;;
13849;SDS011;6995;52.618;13.488;2023-05-01T04:19:19;28.47;;;26.50;;
13849;SDS011;6995;52.618;13.488;2023-05-01T04:21:44;27.53;;;25.27;;
13849;SDS011;6995;52.618;13.488;2023-05-01T04:24:11;28.17;;;26.27;;
13849;SDS011;6995;52.618;13.488;2023-05-01T04:26:37;30.77;;;28.33;;
13849;SDS011;6995;52.618;13.488;2023-05-01T04:29:03;28.57;;;26.67;;
13849;SDS011;6995;52.618;13.488;2023-05-01T04:31:28;27.67;;;25.73;;
13849;SDS011;6995;52.618;13.488;2023-05-01T04:33:54;29.83;;;27.67;;
13849;SDS011;6995;52.618;13.488;2023-05-01T04:36:20;29.53;;;27.27;;
13849;SDS011;6995;52.618;13.488;2023-05-01T04:38:46;27.97;;;25.90;;
13849;SDS011;6995;52.618;13.488;2023-05-01T04:41:12;27.07;;;25.17;;
13849;SDS011;6995;52.618;13.488;2023-05-01T04:43:38;27.07;;;25.10;;
13849;SDS011;6995;52.618;13.488;2023-05-01T04:46:03;26.70;;;24.83;;
13849;SDS011;6995;52.618;13.488;2023-05-01T04:48:29;28.43;;;26.33;;
13849;SDS011;6995;52.618;13.488;2023-05-01T04:50:55;29.33;;;27.20;;
13849;SDS011;6995;52.618;13.488;2023-05-01T04:53:21;28.60;;;26.63;;
13849;SDS011;6995;52.618;13.488;2023-05-01T04:55:47;27.63;;;25.70;;
13849;SDS011;6995;52.618;13.488;2023-05-01T04:58:12;28.70;;;26.53;;
13849;SDS011;6995;52.618;13.488;2023-05-01T05:00:38;26.83;;;25.03;;
13849;SDS011;6995;52.618;13.488;2023-05-01T05:03:03;27.67;;;25.90;;
13849;SDS011;6995;52.618;13.488;2023-05-01T05:05:30;29.23;;;27.13;;
13849;SDS011;6995;52.618;13.488;2023-05-01T05:07:56;25.67;;;23.97;;
13849;SDS011;6995;52.618;13.488;2023-05-01T05:10:22;27.27;;;25.23;;
13849;SDS011;6995;52.618;13.488;2023-05-01T05:12:47;27.30;;;25.60;;
13849;SDS011;6995;52.618;13.488;2023-05-01T05:15:13;28.53;;;26.70;;
13849;SDS011;6995;52.618;13.488;2023-05-01T05:17:40;30.47;;;28.43;;
13849;SDS011;6995;52.618;13.488;2023-05-01T05:20:06;32.93;;;30.43;;
13849;SDS011;6995;52.618;13.488;2023-05-01T05:22:34;29.07;;;27.17;;
13849;SDS011;6995;52.618;13.488;2023-05-01T05:25:01;28.50;;;26.20;;
13849;SDS011;6995;52.618;13.488;2023-05-01T05:27:28;26.70;;;25.00;;
13849;SDS011;6995;52.618;13.488;2023-05-01T05:29:55;29.77;;;27.50;;
13849;SDS011;6995;52.618;13.488;2023-05-01T05:32:21;28.13;;;26.03;;
13849;SDS011;6995;52.618;13.488;2023-05-01T05:34:46;28.47;;;26.57;;
13849;SDS011;6995;52.618;13.488;2023-05-01T05:37:12;28.43;;;26.10;;
13849;SDS011;6995;52.618;13.488;2023-05-01T05:39:37;28.67;;;26.23;;
13849;SDS011;6995;52.618;13.488;2023-05-01T05:42:03;28.93;;;27.03;;
13849;SDS011;6995;52.618;13.488;2023-05-01T05:44:29;29.20;;;26.87;;
13849;SDS011;6995;52.618;13.488;2023-05-01T05:46:56;26.63;;;24.93;;
13849;SDS011;6995;52.618;13.488;2023-05-01T05:49:22;28.40;;;26.23;;
13849;SDS011;6995;52.618;13.488;2023-05-01T05:51:48;27.80;;;25.90;;
13849;SDS011;6995;52.618;13.488;2023-05-01T05:54:13;25.00;;;23.30;;
13849;SDS011;6995;52.618;13.488;2023-05-01T05:56:39;28.43;;;26.07;;
13849;SDS011;6995;52.618;13.488;2023-05-01T05:59:04;27.43;;;25.57;;
13849;SDS011;6995;52.618;13.488;2023-05-01T06:01:30;27.23;;;25.33;;
13849;SDS011;6995;52.618;13.488;2023-05-01T06:03:56;25.20;;;23.17;;
13849;SDS011;6995;52.618;13.488;2023-05-01T06:06:22;27.97;;;25.73;;
13849;SDS011;6995;52.618;13.488;2023-05-01T06:08:48;27.20;;;25.40;;
13849;SDS011;6995;52.618;13.488;2023-05-01T06:11:13;29.87;;;27.77;;
13849;SDS011;6995;52.618;13.488;2023-05-01T06:13:39;29.00;;;27.37;;
13849;SDS011;6995;52.618;13.488;2023-05-01T06:16:05;27.60;;;25.90;;
13849;SDS011;6995;52.618;13.488;2023-05-01T06:18:32;26.43;;;24.73;;
13849;SDS011;6995;52.618;13.488;2023-05-01T06:20:57;26.43;;;24.63;;
13849;SDS011;6995;52.618;13.488;2023-05-01T06:23:25;26.20;;;24.27;;
13849;SDS011;6995;52.618;13.488;2023-05-01T06:25:50;27.93;;;26.03;;
13849;SDS011;6995;52.618;13.488;2023-05-01T06:28:16;24.70;;;22.70;;
13849;SDS011;6995;52.618;13.488;2023-05-01T06:30:41;26.27;;;24.50;;
13849;SDS011;6995;52.618;13.488;2023-05-01T06:33:07;25.93;;;24.33;;
13849;SDS011;6995;52.618;13.488;2023-05-01T06:35:34;26.07;;;24.07;;
13849;SDS011;6995;52.618;13.488;2023-05-01T06:38:00;26.23;;;24.20;;
13849;SDS011;6995;52.618;13.488;2023-05-01T06:40:27;26.50;;;24.80;;
13849;SDS011;6995;52.618;13.488;2023-05-01T06:42:52;23.97;;;22.27;;
13849;SDS011;6995;52.618;13.488;2023-05-01T06:45:18;26.43;;;24.33;;
13849;SDS011;6995;52.618;13.488;2023-05-01T06:47:44;25.07;;;23.23;;
13849;SDS011;6995;52.618;13.488;2023-05-01T06:50:10;29.67;;;27.50;;
13849;SDS011;6995;52.618;13.488;2023-05-01T06:52:36;27.33;;;25.63;;
13849;SDS011;6995;52.618;13.488;2023-05-01T06:55:01;25.60;;;23.93;;
13849;SDS011;6995;52.618;13.488;2023-05-01T06:57:30;25.93;;;24.07;;
13849;SDS011;6995;52.618;13.488;2023-05-01T06:59:56;24.67;;;23.27;;
13849;SDS011;6995;52.618;13.488;2023-05-01T07:02:22;26.03;;;24.43;;
13849;SDS011;6995;52.618;13.488;2023-05-01T07:04:47;25.10;;;23.60;;
13849;SDS011;6995;52.618;13.488;2023-05-01T07:07:13;28.13;;;26.17;;
13849;SDS011;6995;52.618;13.488;2023-05-01T07:09:39;26.83;;;25.23;;
13849;SDS011;6995;52.618;13.488;2023-05-01T07:12:05;26.80;;;25.10;;
13849;SDS011;6995;52.618;13.488;2023-05-01T07:14:34;24.83;;;23.23;;
13849;SDS011;6995;52.618;13.488;2023-05-01T07:17:00;25.77;;;23.90;;
13849;SDS011;6995;52.618;13.488;2023-05-01T07:19:26;25.00;;;23.47;;
13849;SDS011;6995;52.618;13.488;2023-05-01T07:21:52;22.90;;;21.60;;
13849;SDS011;6995;52.618;13.488;2023-05-01T07:24:18;24.03;;;22.33;;
13849;SDS011;6995;52.618;13.488;2023-05-01T07:26:46;23.63;;;22.03;;
13849;SDS011;6995;52.618;13.488;2023-05-01T07:29:13;23.07;;;21.63;;
13849;SDS011;6995;52.618;13.488;2023-05-01T07:31:40;23.53;;;21.83;;
13849;SDS011;6995;52.618;13.488;2023-05-01T07:34:06;23.40;;;21.90;;
13849;SDS011;6995;52.618;13.488;2023-05-01T07:36:32;27.20;;;25.50;;
13849;SDS011;6995;52.618;13.488;2023-05-01T07:39:00;24.55;;;23.10;;
13849;SDS011;6995;52.618;13.488;2023-05-01T07:41:25;25.37;;;23.63;;
13849;SDS011;6995;52.618;13.488;2023-05-01T07:43:51;22.40;;;20.73;;
13849;SDS011;6995;52.618;13.488;2023-05-01T07:46:17;22.42;;;20.70;;
13849;SDS011;6995;52.618;13.488;2023-05-01T07:48:43;23.35;;;21.48;;
13849;SDS011;6995;52.618;13.488;2023-05-01T07:51:09;22.83;;;21.30;;
13849;SDS011;6995;52.618;13.488;2023-05-01T07:53:34;21.30;;;19.80;;
13849;SDS011;6995;52.618;13.488;2023-05-01T07:56:15;22.63;;;21.10;;
13849;SDS011;6995;52.618;13.488;2023-05-01T07:58:45;24.83;;;23.30;;
13849;SDS011;6995;52.618;13.488;2023-05-01T08:01:10;24.55;;;23.08;;
13849;SDS011;6995;52.618;13.488;2023-05-01T08:03:36;22.75;;;21.45;;
13849;SDS011;6995;52.618;13.488;2023-05-01T08:06:02;26.05;;;24.25;;
13849;SDS011;6995;52.618;13.488;2023-05-01T08:08:28;29.35;;;27.35;;
13849;SDS011;6995;52.618;13.488;2023-05-01T08:10:53;30.05;;;28.08;;
13849;SDS011;6995;52.618;13.488;2023-05-01T08:13:19;26.40;;;24.90;;
13849;SDS011;6995;52.618;13.488;2023-05-01T08:15:45;27.27;;;25.48;;
13849;SDS011;6995;52.618;13.488;2023-05-01T08:18:13;25.70;;;24.23;;
13849;SDS011;6995;52.618;13.488;2023-05-01T08:20:44;23.42;;;21.95;;
13849;SDS011;6995;52.618;13.488;2023-05-01T08:23:13;24.00;;;22.40;;
13849;SDS011;6995;52.618;13.488;2023-05-01T08:25:40;22.60;;;21.15;;
13849;SDS011;6995;52.618;13.488;2023-05-01T08:28:15;22.65;;;21.25;;
13849;SDS011;6995;52.618;13.488;2023-05-01T08:30:41;23.63;;;22.23;;
13849;SDS011;6995;52.618;13.488;2023-05-01T08:33:08;26.23;;;24.52;;
13849;SDS011;6995;52.618;13.488;2023-05-01T08:35:34;23.48;;;22.00;;
13849;SDS011;6995;52.618;13.488;2023-05-01T08:38:00;23.70;;;22.13;;
13849;SDS011;6995;52.618;13.488;2023-05-01T08:40:25;21.30;;;20.05;;
13849;SDS011;6995;52.618;13.488;2023-05-01T08:42:51;20.90;;;19.40;;
13849;SDS011;6995;52.618;13.488;2023-05-01T08:45:19;24.35;;;22.83;;
13849;SDS011;6995;52.618;13.488;2023-05-01T08:47:47;19.75;;;18.42;;
13849;SDS011;6995;52.618;13.488;2023-05-01T08:50:15;22.73;;;21.13;;
13849;SDS011;6995;52.618;13.488;2023-05-01T08:52:42;20.30;;;18.67;;
13849;SDS011;6995;52.618;13.488;2023-05-01T08:55:15;21.52;;;19.98;;
13849;SDS011;6995;52.618;13.488;2023-05-01T08:57:46;19.52;;;18.33;;
13849;SDS011;6995;52.618;13.488;2023-05-01T09:00:16;21.35;;;19.80;;
13849;SDS011;6995;52.618;13.488;2023-05-01T09:02:47;23.27;;;21.40;;
13849;SDS011;6995;52.618;13.488;2023-05-01T09:05:14;21.23;;;19.77;;
13849;SDS011;6995;52.618;13.488;2023-05-01T09:07:41;21.73;;;20.33;;
13849;SDS011;6995;52.618;13.488;2023-05-01T09:10:10;23.70;;;21.60;;
13849;SDS011;6995;52.618;13.488;2023-05-01T09:12:36;21.67;;;20.13;;
13849;SDS011;6995;52.618;13.488;2023-05-01T09:15:04;21.63;;;20.25;;
13849;SDS011;6995;52.618;13.488;2023-05-01T09:17:31;23.95;;;22.23;;
13849;SDS011;6995;52.618;13.488;2023-05-01T09:20:02;22.20;;;20.80;;
13849;SDS011;6995;52.618;13.488;2023-05-01T09:22:30;23.33;;;21.70;;
13849;SDS011;6995;52.618;13.488;2023-05-01T09:24:57;20.25;;;19.15;;
13849;SDS011;6995;52.618;13.488;2023-05-01T09:27:23;21.52;;;20.33;;
13849;SDS011;6995;52.618;13.488;2023-05-01T09:29:50;22.60;;;21.30;;
13849;SDS011;6995;52.618;13.488;2023-05-01T09:32:17;22.63;;;21.23;;
13849;SDS011;6995;52.618;13.488;2023-05-01T09:34:47;25.85;;;23.98;;
13849;SDS011;6995;52.618;13.488;2023-05-01T09:37:23;23.05;;;21.27;;
13849;SDS011;6995;52.618;13.488;2023-05-01T09:40:00;24.75;;;23.05;;
13849;SDS011;6995;52.618;13.488;2023-05-01T09:42:30;22.33;;;20.83;;
13849;SDS011;6995;52.618;13.488;2023-05-01T09:45:22;22.33;;;20.67;;
13849;SDS011;6995;52.618;13.488;2023-05-01T09:47:50;27.27;;;25.25;;
13849;SDS011;6995;52.618;13.488;2023-05-01T09:53:01;22.73;;;20.92;;
13849;SDS011;6995;52.618;13.488;2023-05-01T09:55:29;22.33;;;21.10;;
13849;SDS011;6995;52.618;13.488;2023-05-01T09:57:57;22.10;;;20.67;;
13849;SDS011;6995;52.618;13.488;2023-05-01T10:00:23;26.17;;;24.50;;
13849;SDS011;6995;52.618;13.488;2023-05-01T10:02:49;23.15;;;21.45;;
13849;SDS011;6995;52.618;13.488;2023-05-01T10:05:15;22.75;;;21.25;;
13849;SDS011;6995;52.618;13.488;2023-05-01T10:07:55;21.55;;;20.20;;
13849;SDS011;6995;52.618;13.488;2023-05-01T10:10:26;22.55;;;20.90;;
13849;SDS011;6995;52.618;13.488;2023-05-01T10:12:52;21.80;;;20.60;;
13849;SDS011;6995;52.618;13.488;2023-05-01T10:15:17;21.88;;;20.38;;
13849;SDS011;6995;52.618;13.488;2023-05-01T10:17:44;22.52;;;21.13;;
13849;SDS011;6995;52.618;13.488;2023-05-01T10:20:13;23.67;;;22.35;;
13849;SDS011;6995;52.618;13.488;2023-05-01T10:22:39;24.70;;;23.13;;
13849;SDS011;6995;52.618;13.488;2023-05-01T10:25:08;24.02;;;22.50;;
13849;SDS011;6995;52.618;13.488;2023-05-01T10:27:36;22.73;;;21.30;;
13849;SDS011;6995;52.618;13.488;2023-05-01T10:30:06;23.50;;;22.02;;
13849;SDS011;6995;52.618;13.488;2023-05-01T10:32:33;23.48;;;22.05;;
13849;SDS011;6995;52.618;13.488;2023-05-01T10:35:20;28.27;;;26.42;;
13849;SDS011;6995;52.618;13.488;2023-05-01T10:38:00;24.50;;;22.48;;
13849;SDS011;6995;52.618;13.488;2023-05-01T10:46:25;23.83;;;22.42;;
13849;SDS011;6995;52.618;13.488;2023-05-01T10:48:51;23.85;;;22.45;;
13849;SDS011;6995;52.618;13.488;2023-05-01T10:51:20;24.85;;;23.35;;
13849;SDS011;6995;52.618;13.488;2023-05-01T10:53:47;24.13;;;22.60;;
13849;SDS011;6995;52.618;13.488;2023-05-01T10:59:03;25.38;;;23.88;;
13849;SDS011;6995;52.618;13.488;2023-05-01T11:09:38;27.70;;;25.77;;
13849;SDS011;6995;52.618;13.488;2023-05-01T11:12:08;24.52;;;23.02;;
13849;SDS011;6995;52.618;13.488;2023-05-01T11:22:56;24.73;;;23.23;;
13849;SDS011;6995;52.618;13.488;2023-05-01T11:25:26;23.55;;;22.23;;
13849;SDS011;6995;52.618;13.488;2023-05-01T11:27:55;24.60;;;22.98;;
13849;SDS011;6995;52.618;13.488;2023-05-01T11:30:22;23.10;;;21.63;;
13849;SDS011;6995;52.618;13.488;2023-05-01T11:32:49;24.73;;;23.17;;
13849;SDS011;6995;52.618;13.488;2023-05-01T11:37:48;24.42;;;22.75;;
13849;SDS011;6995;52.618;13.488;2023-05-01T11:40:22;22.65;;;21.30;;
13849;SDS011;6995;52.618;13.488;2023-05-01T11:42:48;27.00;;;25.20;;
13849;SDS011;6995;52.618;13.488;2023-05-01T11:45:15;24.77;;;23.08;;
13849;SDS011;6995;52.618;13.488;2023-05-01T11:47:40;23.98;;;22.38;;
13849;SDS011;6995;52.618;13.488;2023-05-01T11:50:07;21.63;;;20.10;;
13849;SDS011;6995;52.618;13.488;2023-05-01T11:52:40;21.73;;;20.35;;
13849;SDS011;6995;52.618;13.488;2023-05-01T11:55:10;22.75;;;21.35;;
13849;SDS011;6995;52.618;13.488;2023-05-01T11:57:52;24.27;;;22.73;;
13849;SDS011;6995;52.618;13.488;2023-05-01T12:00:31;25.90;;;24.15;;
13849;SDS011;6995;52.618;13.488;2023-05-01T12:03:07;22.80;;;21.42;;
13849;SDS011;6995;52.618;13.488;2023-05-01T12:05:35;21.05;;;19.65;;
13849;SDS011;6995;52.618;13.488;2023-05-01T12:08:12;23.38;;;21.70;;
13849;SDS011;6995;52.618;13.488;2023-05-01T12:10:49;22.38;;;20.75;;
13849;SDS011;6995;52.618;13.488;2023-05-01T12:13:17;22.98;;;21.35;;
13849;SDS011;6995;52.618;13.488;2023-05-01T12:15:48;22.35;;;20.75;;
13849;SDS011;6995;52.618;13.488;2023-05-01T12:18:18;22.67;;;21.17;;
13849;SDS011;6995;52.618;13.488;2023-05-01T12:20:51;23.42;;;21.70;;
13849;SDS011;6995;52.618;13.488;2023-05-01T12:23:19;21.38;;;19.70;;
13849;SDS011;6995;52.618;13.488;2023-05-01T12:25:56;20.67;;;19.38;;
13849;SDS011;6995;52.618;13.488;2023-05-01T12:28:21;21.70;;;19.88;;
13849;SDS011;6995;52.618;13.488;2023-05-01T12:30:47;22.40;;;21.05;;
13849;SDS011;6995;52.618;13.488;2023-05-01T12:33:15;22.98;;;21.27;;
13849;SDS011;6995;52.618;13.488;2023-05-01T12:35:42;20.80;;;19.38;;
13849;SDS011;6995;52.618;13.488;2023-05-01T12:38:10;23.85;;;22.33;;
13849;SDS011;6995;52.618;13.488;2023-05-01T12:40:53;28.55;;;26.75;;
13849;SDS011;6995;52.618;13.488;2023-05-01T12:43:21;25.00;;;23.50;;
13849;SDS011;6995;52.618;13.488;2023-05-01T12:45:57;23.73;;;22.30;;
13849;SDS011;6995;52.618;13.488;2023-05-01T12:48:23;21.50;;;19.83;;
13849;SDS011;6995;52.618;13.488;2023-05-01T12:50:49;24.00;;;22.30;;
13849;SDS011;6995;52.618;13.488;2023-05-01T12:53:23;20.85;;;19.75;;
13849;SDS011;6995;52.618;13.488;2023-05-01T12:55:51;23.08;;;21.48;;
13849;SDS011;6995;52.618;13.488;2023-05-01T12:58:21;19.98;;;18.77;;
13849;SDS011;6995;52.618;13.488;2023-05-01T13:00:50;24.38;;;22.27;;
13849;SDS011;6995;52.618;13.488;2023-05-01T13:03:27;22.40;;;20.75;;
13849;SDS011;6995;52.618;13.488;2023-05-01T13:05:54;25.75;;;24.05;;
13849;SDS011;6995;52.618;13.488;2023-05-01T13:08:28;23.90;;;22.20;;
13849;SDS011;6995;52.618;13.488;2023-05-01T13:10:55;21.40;;;19.85;;
13849;SDS011;6995;52.618;13.488;2023-05-01T13:13:26;21.20;;;19.88;;
13849;SDS011;6995;52.618;13.488;2023-05-01T13:16:03;22.75;;;21.10;;
13849;SDS011;6995;52.618;13.488;2023-05-01T13:18:32;21.33;;;20.10;;
13849;SDS011;6995;52.618;13.488;2023-05-01T13:21:08;24.85;;;22.77;;
13849;SDS011;6995;52.618;13.488;2023-05-01T13:23:35;21.33;;;19.73;;
13849;SDS011;6995;52.618;13.488;2023-05-01T13:26:07;21.52;;;20.02;;
13849;SDS011;6995;52.618;13.488;2023-05-01T13:28:35;20.02;;;18.65;;
13849;SDS011;6995;52.618;13.488;2023-05-01T13:31:24;22.83;;;21.40;;
13849;SDS011;6995;52.618;13.488;2023-05-01T13:33:50;22.52;;;21.02;;
13849;SDS011;6995;52.618;13.488;2023-05-01T13:36:18;19.38;;;18.15;;
13849;SDS011;6995;52.618;13.488;2023-05-01T13:38:51;19.10;;;17.90;;
13849;SDS011;6995;52.618;13.488;2023-05-01T13:41:21;20.48;;;19.20;;
13849;SDS011;6995;52.618;13.488;2023-05-01T13:43:48;19.17;;;17.98;;
13849;SDS011;6995;52.618;13.488;2023-05-01T13:46:16;20.10;;;18.70;;
13849;SDS011;6995;52.618;13.488;2023-05-01T13:48:44;19.20;;;17.90;;
13849;SDS011;6995;52.618;13.488;2023-05-01T13:51:11;21.25;;;19.85;;
13849;SDS011;6995;52.618;13.488;2023-05-01T13:53:38;22.13;;;20.60;;
13849;SDS011;6995;52.618;13.488;2023-05-01T13:56:05;21.85;;;20.27;;
13849;SDS011;6995;52.618;13.488;2023-05-01T13:58:33;19.73;;;18.40;;
13849;SDS011;6995;52.618;13.488;2023-05-01T14:00:59;22.85;;;21.35;;
13849;SDS011;6995;52.618;13.488;2023-05-01T14:03:25;22.10;;;20.42;;
13849;SDS011;6995;52.618;13.488;2023-05-01T14:05:51;20.60;;;19.27;;
13849;SDS011;6995;52.618;13.488;2023-05-01T14:08:20;20.02;;;18.70;;
13849;SDS011;6995;52.618;13.488;2023-05-01T14:10:51;21.08;;;19.58;;
13849;SDS011;6995;52.618;13.488;2023-05-01T14:13:16;19.77;;;18.55;;
13849;SDS011;6995;52.618;13.488;2023-05-01T14:15:43;20.95;;;19.45;;
13849;SDS011;6995;52.618;13.488;2023-05-01T14:18:10;23.08;;;21.52;;
13849;SDS011;6995;52.618;13.488;2023-05-01T14:20:39;23.27;;;21.90;;
13849;SDS011;6995;52.618;13.488;2023-05-01T14:23:06;24.73;;;22.88;;
13849;SDS011;6995;52.618;13.488;2023-05-01T14:25:32;23.45;;;21.75;;
13849;SDS011;6995;52.618;13.488;2023-05-01T14:28:00;20.17;;;18.63;;
13849;SDS011;6995;52.618;13.488;2023-05-01T14:30:33;22.80;;;21.40;;
13849;SDS011;6995;52.618;13.488;2023-05-01T14:33:11;21.98;;;20.42;;
13849;SDS011;6995;52.618;13.488;2023-05-01T14:35:47;25.48;;;23.67;;
13849;SDS011;6995;52.618;13.488;2023-05-01T14:38:15;22.48;;;21.08;;
13849;SDS011;6995;52.618;13.488;2023-05-01T14:40:57;23.80;;;22.27;;
13849;SDS011;6995;52.618;13.488;2023-05-01T14:43:23;21.40;;;19.90;;
13849;SDS011;6995;52.618;13.488;2023-05-01T14:45:48;21.15;;;19.85;;
13849;SDS011;6995;52.618;13.488;2023-05-01T14:48:22;20.42;;;19.13;;
13849;SDS011;6995;52.618;13.488;2023-05-01T14:50:49;24.85;;;23.25;;
13849;SDS011;6995;52.618;13.488;2023-05-01T14:53:16;22.27;;;20.98;;
13849;SDS011;6995;52.618;13.488;2023-05-01T14:55:42;25.25;;;23.50;;
13849;SDS011;6995;52.618;13.488;2023-05-01T14:58:07;23.02;;;21.55;;
13849;SDS011;6995;52.618;13.488;2023-05-01T15:00:33;18.85;;;17.55;;
13849;SDS011;6995;52.618;13.488;2023-05-01T15:02:59;20.02;;;18.73;;
13849;SDS011;6995;52.618;13.488;2023-05-01T15:05:25;20.35;;;18.83;;
13849;SDS011;6995;52.618;13.488;2023-05-01T15:07:55;19.40;;;18.00;;
13849;SDS011;6995;52.618;13.488;2023-05-01T15:10:24;21.00;;;19.25;;
13849;SDS011;6995;52.618;13.488;2023-05-01T15:12:50;21.10;;;19.70;;